Imperial, Nebraska
Current Conditions -  °F | °C
As of 11:53 PM on Tuesday 21 Oct 2014 (Local Time) from KIML Reporting Station
Clear Clear  
Wind Chill: 60°   Ceiling: Unl
Heat Index: 60°   Visibility: 10mi
Dew Point: 46°   Wind: 9mph
Humidity: 60%   Direction: 150°SSE
Pressure: 29.91"   Gusts: NA
Location:  40.52°N, 101.64°W
Report Text: KIML 220553Z AUTO 15008KT 10SM CLR 16/08 A2991 RMK AO2 SLP105 T01560078 10228 20156 58001
Loading
Personal Weather Stations






























Interactive Weather Map
Tropical Storm Tracking
New forecast layout! Learn more

10-Day Weather Forecast

Advertisements
Track Severe Weather on mobile